Phoenix Park, Pennsylvania
Current Conditions -  °F | °C
As of 12:58 AM on Friday 31 Oct 2014 (Local Time) from KMUI Reporting Station
Overcast Overcast  
Wind Chill: 45°   Ceiling: 5000
Heat Index: 45°   Visibility: 10mi
Dew Point: 38°   Wind: 0mph
Humidity: 77%   Direction: NA
Pressure: 30.04"   Gusts: NA
Location:  40.6882°N, 76.264°W
Report Text: KMUI 310458Z AUTO 00000KT 10SM OVC050 07/03 A3004 RMK AO2 SLP177 T00720034 401300019
Loading
Personal Weather Stations






























Interactive Weather Map
Tropical Storm Tracking
New forecast layout! Learn more

10-Day Weather Forecast

Advertisements
Track Severe Weather on mobile